sensor_id;sensor_type;location;lat;lon;timestamp;pressure;altitude;pressure_sealevel;temperature;humidity
69955;BME280;57279;55.912;37.490;2023-05-21T00:00:58;99972.84;;;10.10;83.23
69955;BME280;57279;55.912;37.490;2023-05-21T00:03:25;99975.44;;;10.05;83.33
69955;BME280;57279;55.912;37.490;2023-05-21T00:05:52;99972.28;;;10.08;83.69
69955;BME280;57279;55.912;37.490;2023-05-21T00:08:19;99968.66;;;10.02;83.60
69955;BME280;57279;55.912;37.490;2023-05-21T00:10:45;99967.44;;;10.10;83.52
69955;BME280;57279;55.912;37.490;2023-05-21T00:13:11;99969.06;;;10.11;83.96
69955;BME280;57279;55.912;37.490;2023-05-21T00:15:37;99969.69;;;10.13;83.97
69955;BME280;57279;55.912;37.490;2023-05-21T00:18:04;99970.25;;;10.15;83.91
69955;BME280;57279;55.912;37.490;2023-05-21T00:20:30;99966.25;;;10.17;83.89
69955;BME280;57279;55.912;37.490;2023-05-21T00:22:59;99972.69;;;10.16;84.25
69955;BME280;57279;55.912;37.490;2023-05-21T00:25:28;99967.97;;;10.24;84.24
69955;BME280;57279;55.912;37.490;2023-05-21T00:27:54;99977.38;;;10.21;84.02
69955;BME280;57279;55.912;37.490;2023-05-21T00:30:20;99965.19;;;10.18;84.05
69955;BME280;57279;55.912;37.490;2023-05-21T00:32:46;99969.03;;;10.23;84.24
69955;BME280;57279;55.912;37.490;2023-05-21T00:35:12;99963.97;;;10.26;84.33
69955;BME280;57279;55.912;37.490;2023-05-21T00:37:38;99959.75;;;10.30;84.52
69955;BME280;57279;55.912;37.490;2023-05-21T00:40:05;99963.97;;;10.26;84.40
69955;BME280;57279;55.912;37.490;2023-05-21T00:42:36;99963.72;;;10.28;84.15
69955;BME280;57279;55.912;37.490;2023-05-21T00:45:07;99957.50;;;10.27;84.31
69955;BME280;57279;55.912;37.490;2023-05-21T00:47:33;99955.88;;;10.26;84.19
69955;BME280;57279;55.912;37.490;2023-05-21T00:50:01;99961.28;;;10.26;84.18
69955;BME280;57279;55.912;37.490;2023-05-21T00:52:29;99958.59;;;10.26;84.51
69955;BME280;57279;55.912;37.490;2023-05-21T00:54:55;99961.75;;;10.23;83.99
69955;BME280;57279;55.912;37.490;2023-05-21T00:57:22;99958.31;;;10.28;84.11
69955;BME280;57279;55.912;37.490;2023-05-21T00:59:51;99961.47;;;10.36;84.35
69955;BME280;57279;55.912;37.490;2023-05-21T01:02:17;99964.75;;;10.39;84.48
69955;BME280;57279;55.912;37.490;2023-05-21T01:04:44;99956.41;;;10.40;84.12
69955;BME280;57279;55.912;37.490;2023-05-21T01:07:10;99956.91;;;10.37;83.81
69955;BME280;57279;55.912;37.490;2023-05-21T01:09:40;99966.41;;;10.40;83.88
69955;BME280;57279;55.912;37.490;2023-05-21T01:12:07;99965.31;;;10.41;84.04
69955;BME280;57279;55.912;37.490;2023-05-21T01:14:34;99961.91;;;10.45;84.27
69955;BME280;57279;55.912;37.490;2023-05-21T01:17:01;99968.59;;;10.43;83.81
69955;BME280;57279;55.912;37.490;2023-05-21T01:19:27;99962.97;;;10.44;83.84
69955;BME280;57279;55.912;37.490;2023-05-21T01:22:00;99963.53;;;10.46;83.94
69955;BME280;57279;55.912;37.490;2023-05-21T01:24:28;99960.59;;;10.48;83.97
69955;BME280;57279;55.912;37.490;2023-05-21T01:26:54;99958.59;;;10.43;83.82
69955;BME280;57279;55.912;37.490;2023-05-21T01:29:20;99964.09;;;10.48;84.00
69955;BME280;57279;55.912;37.490;2023-05-21T01:31:55;99974.44;;;10.51;84.37
69955;BME280;57279;55.912;37.490;2023-05-21T01:34:35;99965.75;;;10.49;83.95
69955;BME280;57279;55.912;37.490;2023-05-21T01:39:37;99971.97;;;10.50;84.05
69955;BME280;57279;55.912;37.490;2023-05-21T01:42:08;99968.47;;;10.49;84.27
69955;BME280;57279;55.912;37.490;2023-05-21T01:44:35;99970.91;;;10.51;84.34
69955;BME280;57279;55.912;37.490;2023-05-21T01:47:02;99968.47;;;10.49;84.53
69955;BME280;57279;55.912;37.490;2023-05-21T01:49:29;99968.47;;;10.49;84.32
69955;BME280;57279;55.912;37.490;2023-05-21T01:51:55;99964.50;;;10.40;84.47
69955;BME280;57279;55.912;37.490;2023-05-21T01:54:21;99968.34;;;10.44;85.03
69955;BME280;57279;55.912;37.490;2023-05-21T01:56:48;99967.88;;;10.47;84.99
69955;BME280;57279;55.912;37.490;2023-05-21T01:59:16;99972.78;;;10.50;84.44
69955;BME280;57279;55.912;37.490;2023-05-21T02:01:42;99964.44;;;10.52;84.85
69955;BME280;57279;55.912;37.490;2023-05-21T02:04:08;99974.75;;;10.55;84.76
69955;BME280;57279;55.912;37.490;2023-05-21T02:06:34;99967.47;;;10.55;84.97
69955;BME280;57279;55.912;37.490;2023-05-21T02:09:01;99967.81;;;10.59;84.42
69955;BME280;57279;55.912;37.490;2023-05-21T02:11:28;99972.13;;;10.60;84.47
69955;BME280;57279;55.912;37.490;2023-05-21T02:13:53;99974.59;;;10.62;84.60
69955;BME280;57279;55.912;37.490;2023-05-21T02:16:19;99968.84;;;10.58;84.26
69955;BME280;57279;55.912;37.490;2023-05-21T02:18:46;99966.16;;;10.58;84.42
69955;BME280;57279;55.912;37.490;2023-05-21T02:21:16;99962.31;;;10.54;84.13
69955;BME280;57279;55.912;37.490;2023-05-21T02:23:41;99960.13;;;10.51;84.36
69955;BME280;57279;55.912;37.490;2023-05-21T02:26:07;99961.97;;;10.50;84.61
69955;BME280;57279;55.912;37.490;2023-05-21T02:28:33;99958.81;;;10.53;84.64
69955;BME280;57279;55.912;37.490;2023-05-21T02:31:00;99965.25;;;10.52;84.40
69955;BME280;57279;55.912;37.490;2023-05-21T02:33:26;99968.69;;;10.48;84.67
69955;BME280;57279;55.912;37.490;2023-05-21T02:35:52;99968.13;;;10.46;84.63
69955;BME280;57279;55.912;37.490;2023-05-21T02:38:18;99959.78;;;10.47;85.05
69955;BME280;57279;55.912;37.490;2023-05-21T02:40:45;99969.50;;;10.48;84.93
69955;BME280;57279;55.912;37.490;2023-05-21T02:43:11;99960.34;;;10.49;84.62
69955;BME280;57279;55.912;37.490;2023-05-21T02:45:36;99963.63;;;10.51;84.86
69955;BME280;57279;55.912;37.490;2023-05-21T02:48:02;99968.53;;;10.54;85.01
69955;BME280;57279;55.912;37.490;2023-05-21T02:50:31;99965.59;;;10.56;84.63
69955;BME280;57279;55.912;37.490;2023-05-21T02:52:58;99963.69;;;10.56;84.39
69955;BME280;57279;55.912;37.490;2023-05-21T02:55:24;99978.84;;;10.57;84.39
69955;BME280;57279;55.912;37.490;2023-05-21T02:57:50;99974.75;;;10.55;84.48
69955;BME280;57279;55.912;37.490;2023-05-21T03:00:16;99969.59;;;10.53;84.24
69955;BME280;57279;55.912;37.490;2023-05-21T03:02:42;99968.28;;;10.56;84.20
69955;BME280;57279;55.912;37.490;2023-05-21T03:05:08;99971.78;;;10.56;84.29
69955;BME280;57279;55.912;37.490;2023-05-21T03:07:34;99976.13;;;10.57;84.26
69955;BME280;57279;55.912;37.490;2023-05-21T03:10:00;99974.25;;;10.58;84.13
69955;BME280;57279;55.912;37.490;2023-05-21T03:12:26;99978.09;;;10.62;84.28
69955;BME280;57279;55.912;37.490;2023-05-21T03:14:52;99979.75;;;10.63;84.00
69955;BME280;57279;55.912;37.490;2023-05-21T03:17:18;99977.84;;;10.64;84.31
69955;BME280;57279;55.912;37.490;2023-05-21T03:19:44;99980.31;;;10.65;84.31
69955;BME280;57279;55.912;37.490;2023-05-21T03:22:10;99978.38;;;10.61;84.17
69955;BME280;57279;55.912;37.490;2023-05-21T03:24:39;99972.63;;;10.57;83.90
69955;BME280;57279;55.912;37.490;2023-05-21T03:27:06;99974.25;;;10.58;84.08
69955;BME280;57279;55.912;37.490;2023-05-21T03:29:33;99982.13;;;10.60;84.46
69955;BME280;57279;55.912;37.490;2023-05-21T03:32:00;99983.25;;;10.64;84.78
69955;BME280;57279;55.912;37.490;2023-05-21T03:34:26;99978.69;;;10.64;83.91
69955;BME280;57279;55.912;37.490;2023-05-21T03:36:52;99984.72;;;10.71;83.76
69955;BME280;57279;55.912;37.490;2023-05-21T03:39:19;99984.50;;;10.73;83.66
69955;BME280;57279;55.912;37.490;2023-05-21T03:41:45;99981.78;;;10.73;83.26
69955;BME280;57279;55.912;37.490;2023-05-21T03:44:34;99975.66;;;10.78;83.50
69955;BME280;57279;55.912;37.490;2023-05-21T03:47:20;99983.78;;;10.78;83.32
69955;BME280;57279;55.912;37.490;2023-05-21T03:49:47;99980.75;;;10.74;83.45
69955;BME280;57279;55.912;37.490;2023-05-21T03:52:13;99984.25;;;10.74;83.53
69955;BME280;57279;55.912;37.490;2023-05-21T03:54:38;99990.31;;;10.82;83.58
69955;BME280;57279;55.912;37.490;2023-05-21T03:57:06;99981.22;;;10.88;83.44
69955;BME280;57279;55.912;37.490;2023-05-21T03:59:32;99982.38;;;10.92;83.37
69955;BME280;57279;55.912;37.490;2023-05-21T04:01:58;99989.00;;;11.01;83.09
69955;BME280;57279;55.912;37.490;2023-05-21T04:04:24;99990.13;;;11.05;83.20
69955;BME280;57279;55.912;37.490;2023-05-21T04:06:50;99983.72;;;11.11;83.29
69955;BME280;57279;55.912;37.490;2023-05-21T04:09:16;99986.03;;;11.03;82.85
69955;BME280;57279;55.912;37.490;2023-05-21T04:11:41;99985.28;;;11.07;83.08
69955;BME280;57279;55.912;37.490;2023-05-21T04:14:09;99983.09;;;11.04;82.75
69955;BME280;57279;55.912;37.490;2023-05-21T04:16:34;99988.50;;;11.04;82.34
69955;BME280;57279;55.912;37.490;2023-05-21T04:19:03;99980.97;;;11.06;82.00
69955;BME280;57279;55.912;37.490;2023-05-21T04:21:29;99981.44;;;11.03;81.92
69955;BME280;57279;55.912;37.490;2023-05-21T04:23:57;99984.25;;;11.08;82.26
69955;BME280;57279;55.912;37.490;2023-05-21T04:26:45;99980.22;;;11.11;82.21
69955;BME280;57279;55.912;37.490;2023-05-21T04:29:13;99982.09;;;11.10;81.59
69955;BME280;57279;55.912;37.490;2023-05-21T04:31:43;99988.16;;;11.18;81.58
69955;BME280;57279;55.912;37.490;2023-05-21T04:34:08;99986.59;;;11.22;81.55
69955;BME280;57279;55.912;37.490;2023-05-21T04:36:34;99979.88;;;11.24;81.57
69955;BME280;57279;55.912;37.490;2023-05-21T04:39:00;99985.84;;;11.26;81.60
69955;BME280;57279;55.912;37.490;2023-05-21T04:41:27;99981.31;;;11.32;81.39
69955;BME280;57279;55.912;37.490;2023-05-21T04:43:53;99983.53;;;11.35;80.97
69955;BME280;57279;55.912;37.490;2023-05-21T04:46:20;99985.47;;;11.40;81.07
69955;BME280;57279;55.912;37.490;2023-05-21T04:48:52;99979.25;;;11.39;81.06
69955;BME280;57279;55.912;37.490;2023-05-21T04:51:22;99976.00;;;11.37;81.09
69955;BME280;57279;55.912;37.490;2023-05-21T04:53:51;99981.16;;;11.39;81.22
69955;BME280;57279;55.912;37.490;2023-05-21T04:56:18;99981.41;;;11.37;81.04
69955;BME280;57279;55.912;37.490;2023-05-21T04:58:45;99986.16;;;11.30;80.94
69955;BME280;57279;55.912;37.490;2023-05-21T05:01:13;99988.78;;;11.25;81.04
69955;BME280;57279;55.912;37.490;2023-05-21T05:03:39;99990.75;;;11.29;81.37
69955;BME280;57279;55.912;37.490;2023-05-21T05:06:05;99994.91;;;11.37;81.28
69955;BME280;57279;55.912;37.490;2023-05-21T05:08:32;99995.59;;;11.49;81.21
69955;BME280;57279;55.912;37.490;2023-05-21T05:10:58;99998.06;;;11.51;80.99
69955;BME280;57279;55.912;37.490;2023-05-21T05:13:24;99991.28;;;11.48;80.37
69955;BME280;57279;55.912;37.490;2023-05-21T05:15:50;99992.41;;;11.52;80.29
69955;BME280;57279;55.912;37.490;2023-05-21T05:18:18;99994.22;;;11.47;79.83
69955;BME280;57279;55.912;37.490;2023-05-21T05:20:44;99993.97;;;11.48;79.94
69955;BME280;57279;55.912;37.490;2023-05-21T05:23:11;99995.84;;;11.48;79.57
69955;BME280;57279;55.912;37.490;2023-05-21T05:25:38;100001.44;;;11.41;79.61
69955;BME280;57279;55.912;37.490;2023-05-21T05:28:04;100003.03;;;11.37;79.50
69955;BME280;57279;55.912;37.490;2023-05-21T05:30:30;99996.16;;;11.29;78.65
69955;BME280;57279;55.912;37.490;2023-05-21T05:33:05;100000.44;;;11.25;78.20
69955;BME280;57279;55.912;37.490;2023-05-21T05:35:31;100011.38;;;11.35;78.06
69955;BME280;57279;55.912;37.490;2023-05-21T05:37:57;100007.88;;;11.35;77.90
69955;BME280;57279;55.912;37.490;2023-05-21T05:40:23;100010.06;;;11.38;77.60
69955;BME280;57279;55.912;37.490;2023-05-21T05:42:48;100015.53;;;11.43;77.59
69955;BME280;57279;55.912;37.490;2023-05-21T05:45:18;100012.16;;;11.53;77.47
69955;BME280;57279;55.912;37.490;2023-05-21T05:47:44;100011.66;;;11.56;77.01
69955;BME280;57279;55.912;37.490;2023-05-21T05:50:09;100001.16;;;11.60;76.93
69955;BME280;57279;55.912;37.490;2023-05-21T05:52:35;100004.56;;;11.72;76.65
69955;BME280;57279;55.912;37.490;2023-05-21T05:55:01;100013.63;;;11.83;76.89
69955;BME280;57279;55.912;37.490;2023-05-21T05:57:28;100007.78;;;11.91;76.62
69955;BME280;57279;55.912;37.490;2023-05-21T05:59:58;100010.97;;;11.88;75.61
69955;BME280;57279;55.912;37.490;2023-05-21T06:02:24;100020.41;;;11.85;75.13
69955;BME280;57279;55.912;37.490;2023-05-21T06:04:50;100019.44;;;11.74;75.13
69955;BME280;57279;55.912;37.490;2023-05-21T06:07:16;100027.28;;;11.71;75.48
69955;BME280;57279;55.912;37.490;2023-05-21T06:09:42;100025.63;;;11.70;75.52
69955;BME280;57279;55.912;37.490;2023-05-21T06:12:08;100019.34;;;11.64;75.67
69955;BME280;57279;55.912;37.490;2023-05-21T06:14:34;100026.06;;;11.62;75.73
69955;BME280;57279;55.912;37.490;2023-05-21T06:17:00;100021.72;;;11.61;75.51
69955;BME280;57279;55.912;37.490;2023-05-21T06:19:26;100022.47;;;11.56;74.59
69955;BME280;57279;55.912;37.490;2023-05-21T06:21:52;100027.38;;;11.59;74.82
69955;BME280;57279;55.912;37.490;2023-05-21T06:24:17;100017.63;;;11.58;74.54
69955;BME280;57279;55.912;37.490;2023-05-21T06:26:43;100018.78;;;11.62;75.03
69955;BME280;57279;55.912;37.490;2023-05-21T06:29:09;100019.81;;;11.61;74.83
69955;BME280;57279;55.912;37.490;2023-05-21T06:31:35;100024.56;;;11.71;74.81
69955;BME280;57279;55.912;37.490;2023-05-21T06:34:01;100022.44;;;11.73;74.75
69955;BME280;57279;55.912;37.490;2023-05-21T06:36:27;100009.47;;;11.75;74.69
69955;BME280;57279;55.912;37.490;2023-05-21T06:38:55;100022.56;;;11.83;74.29
69955;BME280;57279;55.912;37.490;2023-05-21T06:41:22;100013.09;;;11.86;74.14
69955;BME280;57279;55.912;37.490;2023-05-21T06:43:54;100020.31;;;11.97;73.20
69955;BME280;57279;55.912;37.490;2023-05-21T06:46:39;100016.09;;;12.06;73.04
69955;BME280;57279;55.912;37.490;2023-05-21T06:49:07;100014.09;;;12.24;73.25
69955;BME280;57279;55.912;37.490;2023-05-21T06:51:33;100016.41;;;12.37;71.90
69955;BME280;57279;55.912;37.490;2023-05-21T06:53:59;100008.72;;;12.56;72.47
69955;BME280;57279;55.912;37.490;2023-05-21T06:56:25;100007.81;;;12.73;71.48
69955;BME280;57279;55.912;37.490;2023-05-21T06:58:53;100007.28;;;12.76;70.76
69955;BME280;57279;55.912;37.490;2023-05-21T07:01:19;100014.88;;;12.79;70.33
69955;BME280;57279;55.912;37.490;2023-05-21T07:03:47;100009.28;;;12.85;69.68
69955;BME280;57279;55.912;37.490;2023-05-21T07:06:13;100013.94;;;12.95;69.22
69955;BME280;57279;55.912;37.490;2023-05-21T07:08:39;100018.88;;;13.03;68.69
69955;BME280;57279;55.912;37.490;2023-05-21T07:11:05;100018.69;;;13.15;68.65
69955;BME280;57279;55.912;37.490;2023-05-21T07:13:31;100020.09;;;13.18;67.99
69955;BME280;57279;55.912;37.490;2023-05-21T07:15:57;100024.72;;;13.22;67.69
69955;BME280;57279;55.912;37.490;2023-05-21T07:18:24;100018.13;;;13.13;66.96
69955;BME280;57279;55.912;37.490;2023-05-21T07:20:49;100027.34;;;13.12;67.06
69955;BME280;57279;55.912;37.490;2023-05-21T07:23:15;100011.41;;;13.21;66.99
69955;BME280;57279;55.912;37.490;2023-05-21T07:25:41;100015.81;;;13.27;66.95
69955;BME280;57279;55.912;37.490;2023-05-21T07:28:07;100014.97;;;13.26;66.53
69955;BME280;57279;55.912;37.490;2023-05-21T07:30:34;100014.16;;;13.26;66.73
69955;BME280;57279;55.912;37.490;2023-05-21T07:33:01;100006.09;;;13.31;66.92
69955;BME280;57279;55.912;37.490;2023-05-21T07:35:27;100009.94;;;13.40;65.50
69955;BME280;57279;55.912;37.490;2023-05-21T07:37:53;100006.94;;;13.37;65.15
69955;BME280;57279;55.912;37.490;2023-05-21T07:40:19;100004.03;;;13.48;65.20
69955;BME280;57279;55.912;37.490;2023-05-21T07:42:45;100005.09;;;13.47;64.30
69955;BME280;57279;55.912;37.490;2023-05-21T07:45:12;99998.84;;;13.47;64.02
69955;BME280;57279;55.912;37.490;2023-05-21T07:47:43;100012.91;;;13.39;64.21
69955;BME280;57279;55.912;37.490;2023-05-21T07:50:10;100015.94;;;13.42;63.98
69955;BME280;57279;55.912;37.490;2023-05-21T07:52:36;100010.50;;;13.42;63.47
69955;BME280;57279;55.912;37.490;2023-05-21T07:55:02;100012.41;;;13.47;63.26
69955;BME280;57279;55.912;37.490;2023-05-21T07:57:30;100006.19;;;13.52;63.29
69955;BME280;57279;55.912;37.490;2023-05-21T07:59:59;100017.91;;;13.62;63.30
69955;BME280;57279;55.912;37.490;2023-05-21T08:02:25;100012.25;;;13.69;63.62
69955;BME280;57279;55.912;37.490;2023-05-21T08:04:51;100014.47;;;13.77;62.75
69955;BME280;57279;55.912;37.490;2023-05-21T08:07:17;100014.75;;;13.81;62.37
69955;BME280;57279;55.912;37.490;2023-05-21T08:09:45;100005.28;;;13.88;67.04
69955;BME280;57279;55.912;37.490;2023-05-21T08:12:11;100016.69;;;13.91;61.54
69955;BME280;57279;55.912;37.490;2023-05-21T08:14:40;100002.00;;;13.92;61.23
69955;BME280;57279;55.912;37.490;2023-05-21T08:17:10;100009.13;;;14.03;61.64
69955;BME280;57279;55.912;37.490;2023-05-21T08:19:36;100006.34;;;13.82;60.68
69955;BME280;57279;55.912;37.490;2023-05-21T08:22:03;99999.31;;;13.86;60.77
69955;BME280;57279;55.912;37.490;2023-05-21T08:24:31;100001.47;;;13.89;60.40
69955;BME280;57279;55.912;37.490;2023-05-21T08:26:57;100001.47;;;13.89;60.40
69955;BME280;57279;55.912;37.490;2023-05-21T08:29:23;99999.34;;;13.97;59.88
69955;BME280;57279;55.912;37.490;2023-05-21T08:31:49;99995.59;;;14.13;59.99
69955;BME280;57279;55.912;37.490;2023-05-21T08:34:14;99989.34;;;14.23;58.70
69955;BME280;57279;55.912;37.490;2023-05-21T08:36:47;99997.53;;;14.38;58.54
69955;BME280;57279;55.912;37.490;2023-05-21T08:39:40;99994.00;;;14.48;58.59
69955;BME280;57279;55.912;37.490;2023-05-21T08:42:18;99998.34;;;14.54;58.01
69955;BME280;57279;55.912;37.490;2023-05-21T08:44:50;100004.66;;;14.60;57.16
69955;BME280;57279;55.912;37.490;2023-05-21T08:47:22;100003.56;;;14.76;56.83
69955;BME280;57279;55.912;37.490;2023-05-21T08:49:50;99998.66;;;14.94;57.46
69955;BME280;57279;55.912;37.490;2023-05-21T08:52:16;100001.94;;;15.06;56.00
69955;BME280;57279;55.912;37.490;2023-05-21T08:54:42;100007.34;;;15.11;55.78
69955;BME280;57279;55.912;37.490;2023-05-21T08:57:10;100009.78;;;15.23;56.03
69955;BME280;57279;55.912;37.490;2023-05-21T08:59:37;100010.34;;;15.20;54.78
69955;BME280;57279;55.912;37.490;2023-05-21T09:02:12;100003.81;;;15.11;54.18
69955;BME280;57279;55.912;37.490;2023-05-21T09:04:43;100002.72;;;15.17;54.25
69955;BME280;57279;55.912;37.490;2023-05-21T09:07:14;100001.88;;;15.32;54.61
69955;BME280;57279;55.912;37.490;2023-05-21T09:10:11;100007.28;;;15.42;53.75
69955;BME280;57279;55.912;37.490;2023-05-21T09:12:37;100001.56;;;15.54;53.86
69955;BME280;57279;55.912;37.490;2023-05-21T09:15:05;100005.38;;;15.53;53.80
69955;BME280;57279;55.912;37.490;2023-05-21T09:17:34;100007.56;;;15.45;52.09
69955;BME280;57279;55.912;37.490;2023-05-21T09:20:12;100001.59;;;15.38;52.85
69955;BME280;57279;55.912;37.490;2023-05-21T09:25:14;99991.31;;;15.25;51.84
69955;BME280;57279;55.912;37.490;2023-05-21T09:27:40;100001.06;;;15.26;51.66
69955;BME280;57279;55.912;37.490;2023-05-21T09:30:10;100002.41;;;15.39;51.56
69955;BME280;57279;55.912;37.490;2023-05-21T09:32:37;100008.09;;;15.48;51.79
69955;BME280;57279;55.912;37.490;2023-05-21T09:35:11;100011.59;;;15.58;51.38
69955;BME280;57279;55.912;37.490;2023-05-21T09:37:42;100000.94;;;15.72;52.26
69955;BME280;57279;55.912;37.490;2023-05-21T09:40:18;100009.09;;;15.82;50.81
69955;BME280;57279;55.912;37.490;2023-05-21T09:42:52;100004.19;;;15.85;49.49
69955;BME280;57279;55.912;37.490;2023-05-21T09:45:23;100000.38;;;15.86;48.77
69955;BME280;57279;55.912;37.490;2023-05-21T09:47:53;100012.28;;;16.00;49.35
69955;BME280;57279;55.912;37.490;2023-05-21T09:50:23;100010.13;;;15.97;49.40
69955;BME280;57279;55.912;37.490;2023-05-21T09:52:50;100018.00;;;16.03;49.22
69955;BME280;57279;55.912;37.490;2023-05-21T09:55:18;100011.69;;;16.13;48.77
69955;BME280;57279;55.912;37.490;2023-05-21T09:57:47;100001.06;;;16.12;48.13
69955;BME280;57279;55.912;37.490;2023-05-21T10:00:24;100000.19;;;16.21;50.09
69955;BME280;57279;55.912;37.490;2023-05-21T10:02:56;100005.28;;;16.33;48.45
69955;BME280;57279;55.912;37.490;2023-05-21T10:05:27;100004.44;;;16.43;48.94
69955;BME280;57279;55.912;37.490;2023-05-21T10:07:59;100004.44;;;16.43;49.03
69955;BME280;57279;55.912;37.490;2023-05-21T10:10:27;100000.59;;;16.44;48.30
69955;BME280;57279;55.912;37.490;2023-05-21T10:13:13;99999.16;;;16.52;49.10
69955;BME280;57279;55.912;37.490;2023-05-21T10:15:48;99994.53;;;16.52;48.18
69955;BME280;57279;55.912;37.490;2023-05-21T10:18:14;100002.69;;;16.52;47.96
69955;BME280;57279;55.912;37.490;2023-05-21T10:20:43;99999.69;;;16.54;47.18
69955;BME280;57279;55.912;37.490;2023-05-21T10:23:10;99988.28;;;16.47;48.04
69955;BME280;57279;55.912;37.490;2023-05-21T10:25:37;99992.28;;;16.59;46.50
69955;BME280;57279;55.912;37.490;2023-05-21T10:28:03;99987.25;;;16.77;47.13
69955;BME280;57279;55.912;37.490;2023-05-21T10:30:31;99984.47;;;16.87;47.52
69955;BME280;57279;55.912;37.490;2023-05-21T10:32:58;99988.00;;;16.88;45.54
69955;BME280;57279;55.912;37.490;2023-05-21T10:35:26;99989.41;;;16.85;47.08
69955;BME280;57279;55.912;37.490;2023-05-21T10:37:52;99989.41;;;16.85;47.60
69955;BME280;57279;55.912;37.490;2023-05-21T10:40:18;99992.19;;;16.75;46.98
69955;BME280;57279;55.912;37.490;2023-05-21T10:43:05;99992.88;;;16.56;48.23
69955;BME280;57279;55.912;37.490;2023-05-21T10:56:43;99988.00;;;16.88;48.30
69955;BME280;57279;55.912;37.490;2023-05-21T10:59:29;99987.63;;;16.99;47.18
69955;BME280;57279;55.912;37.490;2023-05-21T11:02:01;99983.41;;;17.12;46.62
69955;BME280;57279;55.912;37.490;2023-05-21T11:04:28;99982.53;;;17.17;46.29
69955;BME280;57279;55.912;37.490;2023-05-21T11:06:54;99983.72;;;17.35;46.68
69955;BME280;57279;55.912;37.490;2023-05-21T11:09:20;99982.81;;;17.45;45.53
69955;BME280;57279;55.912;37.490;2023-05-21T11:11:57;99981.69;;;17.46;43.91
69955;BME280;57279;55.912;37.490;2023-05-21T11:17:38;99977.53;;;17.72;43.31
69955;BME280;57279;55.912;37.490;2023-05-21T11:20:12;99980.81;;;17.74;42.83
69955;BME280;57279;55.912;37.490;2023-05-21T11:22:41;99978.38;;;17.73;43.76
69955;BME280;57279;55.912;37.490;2023-05-21T11:25:10;99978.19;;;17.64;43.34
69955;BME280;57279;55.912;37.490;2023-05-21T11:27:40;99975.13;;;17.47;44.21
69955;BME280;57279;55.912;37.490;2023-05-21T11:30:14;99984.53;;;17.35;43.79
69955;BME280;57279;55.912;37.490;2023-05-21T11:38:09;99980.59;;;16.93;46.14
69955;BME280;57279;55.912;37.490;2023-05-21T11:40:35;99980.88;;;16.92;46.17
69955;BME280;57279;55.912;37.490;2023-05-21T11:43:01;99981.16;;;16.90;45.73
69955;BME280;57279;55.912;37.490;2023-05-21T11:45:28;99980.59;;;16.93;45.57
69955;BME280;57279;55.912;37.490;2023-05-21T11:47:55;99976.72;;;16.99;46.16
69955;BME280;57279;55.912;37.490;2023-05-21T11:50:21;99981.25;;;17.09;45.72
69955;BME280;57279;55.912;37.490;2023-05-21T11:52:48;99979.06;;;17.11;46.49
69955;BME280;57279;55.912;37.490;2023-05-21T11:55:14;99991.03;;;17.15;46.10
69955;BME280;57279;55.912;37.490;2023-05-21T11:57:45;99986.44;;;17.11;45.74
69955;BME280;57279;55.912;37.490;2023-05-21T12:00:15;99981.88;;;17.01;46.28
69955;BME280;57279;55.912;37.490;2023-05-21T12:02:49;99986.38;;;16.87;47.30
69955;BME280;57279;55.912;37.490;2023-05-21T12:05:16;99984.25;;;16.78;48.01
69955;BME280;57279;55.912;37.490;2023-05-21T12:07:41;99987.50;;;16.80;47.48
69955;BME280;57279;55.912;37.490;2023-05-21T12:10:10;99978.25;;;16.76;46.84
69955;BME280;57279;55.912;37.490;2023-05-21T12:12:37;99987.56;;;16.75;47.53
69955;BME280;57279;55.912;37.490;2023-05-21T12:15:02;99983.47;;;16.73;46.49
69955;BME280;57279;55.912;37.490;2023-05-21T12:17:30;99987.88;;;16.69;47.56
69955;BME280;57279;55.912;37.490;2023-05-21T12:19:56;99989.84;;;16.58;47.56
69955;BME280;57279;55.912;37.490;2023-05-21T12:22:23;99996.16;;;16.53;47.83
69955;BME280;57279;55.912;37.490;2023-05-21T12:24:49;99995.91;;;16.50;47.95
69955;BME280;57279;55.912;37.490;2023-05-21T12:27:15;99998.38;;;16.46;48.33
69955;BME280;57279;55.912;37.490;2023-05-21T12:29:44;99999.16;;;16.52;48.13
69955;BME280;57279;55.912;37.490;2023-05-21T12:32:12;100009.00;;;16.53;48.47
69955;BME280;57279;55.912;37.490;2023-05-21T12:37:19;100002.56;;;16.73;48.39
69955;BME280;57279;55.912;37.490;2023-05-21T12:39:51;100002.81;;;17.11;48.12
69955;BME280;57279;55.912;37.490;2023-05-21T12:42:24;100004.69;;;17.39;47.74
69955;BME280;57279;55.912;37.490;2023-05-21T12:44:52;100010.16;;;17.64;46.47
69955;BME280;57279;55.912;37.490;2023-05-21T12:47:22;99998.16;;;17.84;46.32
69955;BME280;57279;55.912;37.490;2023-05-21T12:49:48;99996.84;;;18.05;42.08
69955;BME280;57279;55.912;37.490;2023-05-21T12:52:17;100013.13;;;18.86;43.14
69955;BME280;57279;55.912;37.490;2023-05-21T12:54:47;100005.25;;;20.15;38.03
69955;BME280;57279;55.912;37.490;2023-05-21T12:57:16;100008.53;;;20.39;36.91
69955;BME280;57279;55.912;37.490;2023-05-21T12:59:54;100001.88;;;20.18;37.28
69955;BME280;57279;55.912;37.490;2023-05-21T13:02:27;100007.25;;;20.23;37.08
69955;BME280;57279;55.912;37.490;2023-05-21T13:05:01;100008.44;;;20.30;36.95
69955;BME280;57279;55.912;37.490;2023-05-21T13:07:30;100007.13;;;20.28;37.29
69955;BME280;57279;55.912;37.490;2023-05-21T13:09:57;99999.56;;;20.47;37.22
69955;BME280;57279;55.912;37.490;2023-05-21T13:12:24;100000.25;;;20.17;37.46
69955;BME280;57279;55.912;37.490;2023-05-21T13:14:52;99997.84;;;19.87;37.82
69955;BME280;57279;55.912;37.490;2023-05-21T13:17:18;100008.59;;;19.70;38.23